Latest Weather Observations for PORTABLE QFRI (Inglewood)

IDQ60801

Issued at 9:22 am EST Wednesday 16 January 2019 (issued every 10 minutes, with the page automatically refreshed every 10 minutes)

About weather observations | Map of weather stations | Latest weather observations for QLD | Other Formats
Station Details ID: 250073 Name: PORTABLE QFRI (INGLEWOOD) Lat: -28.42 Lon: 151.10 Height: 286.0 m
Data from the previous 72 hours. | See also: Recent months for locations in Queensland
Date/Time
EST
Temp
°C
App
Temp
°C
Dew
Point
°C
Rel
Hum
%
Delta-T
°C
Wind Press
QNH
hPa
Press
MSL
hPa
Rain since
9am
mm
Dir  Spd
km/h
Gust
km/h
Spd
kts
Gust
kts
16/09:10am 28.9 29.5 16.9 48 7.6 NNE 9 15 5 8 - - 0.0
16/09:00am 28.3 28.6 16.9 50 7.2 NNE 11 13 6 7 - - 0.0
16/08:50am 27.9 28.2 17.0 51 6.9 NNE 11 15 6 8 - - 0.0
16/08:40am 27.7 28.5 17.3 53 6.6 N 9 13 5 7 - - 0.0
16/08:30am 27.4 27.7 17.1 53 6.5 N 11 13 6 7 - - 0.0
16/08:20am 26.6 26.5 17.0 55 6.0 NE 13 15 7 8 - - 0.0
16/08:10am 26.3 26.3 17.1 57 5.8 NNE 13 17 7 9 - - 0.0
16/08:00am 26.1 25.7 17.2 58 5.6 NNE 15 17 8 9 - - 0.0
16/07:50am 25.8 25.8 17.1 58 5.5 NNE 13 17 7 9 - - 0.0
16/07:40am 25.6 25.2 17.2 59 5.3 NNE 15 17 8 9 - - 0.0
16/07:30am 25.3 24.9 17.1 60 5.2 NNE 15 17 8 9 - - 0.0
16/07:20am 24.9 24.9 17.2 62 4.8 NNE 13 20 7 11 - - 0.0
16/07:10am 24.5 24.5 17.3 64 4.5 NE 13 15 7 8 - - 0.0
16/07:00am 24.2 23.5 17.3 65 4.3 NNE 17 20 9 11 - - 0.0
16/06:50am 23.9 22.8 17.3 66 4.1 NNE 19 24 10 13 - - 0.0
16/06:40am 23.7 22.9 17.2 67 4.1 NNE 17 19 9 10 - - 0.0
16/06:30am 23.6 24.1 17.4 68 3.9 NNE 11 15 6 8 - - 0.0
16/06:20am 23.2 23.3 17.4 70 3.6 NNE 13 15 7 8 - - 0.0
16/06:10am 23.0 23.4 17.3 70 3.6 NE 11 15 6 8 - - 0.0
16/06:00am 22.8 23.6 17.3 71 3.4 NE 9 13 5 7 - - 0.0
16/05:50am 22.5 23.3 17.3 72 3.2 NE 9 13 5 7 - - 0.0
16/05:40am 22.4 22.7 17.1 72 3.3 NE 11 11 6 6 - - 0.0
16/05:30am 22.3 23.0 17.1 72 3.2 NE 9 11 5 6 - - 0.0
16/05:20am 22.2 22.5 17.1 73 3.2 NE 11 13 6 7 - - 0.0
16/05:10am 22.3 23.0 17.1 72 3.2 NE 9 13 5 7 - - 0.0
16/05:00am 22.4 22.7 17.0 71 3.4 NE 11 13 6 7 - - 0.0
16/04:50am 22.4 22.7 17.0 71 3.4 NE 11 11 6 6 - - 0.0
16/04:40am 22.4 22.7 16.9 71 3.4 NE 11 13 6 7 - - 0.0
16/04:30am 22.6 23.2 16.9 70 3.5 NE 9 13 5 7 - - 0.0
16/04:20am 22.7 22.9 16.8 69 3.7 NE 11 13 6 7 - - 0.0
16/04:10am 22.9 23.5 16.7 68 3.8 NE 9 11 5 6 - - 0.0
16/04:00am 23.0 22.8 16.7 67 3.9 NE 13 19 7 10 - - 0.0
16/03:50am 23.1 22.9 16.8 67 3.9 NNE 13 15 7 8 - - 0.0
16/03:40am 23.3 23.5 16.8 67 4.0 NE 11 13 6 7 - - 0.0
16/03:30am 23.5 23.7 16.7 65 4.2 NE 11 15 6 8 - - 0.0
16/03:20am 23.7 23.5 16.7 65 4.3 NE 13 17 7 9 - - 0.0
16/03:10am 23.8 23.6 16.7 64 4.4 NNE 13 17 7 9 - - 0.0
16/03:00am 23.9 23.7 16.7 64 4.5 NNE 13 17 7 9 - - 0.0
16/02:50am 24.1 24.4 16.9 64 4.5 NNE 11 13 6 7 - - 0.0
16/02:40am 24.3 24.5 16.8 63 4.7 NNE 11 15 6 8 - - 0.0
16/02:30am 24.4 24.2 16.8 62 4.7 NNE 13 17 7 9 - - 0.0
16/02:20am 24.6 24.1 16.8 62 4.9 NNE 15 19 8 10 - - 0.0
16/02:10am 24.9 24.4 16.9 61 5.0 NNE 15 19 8 10 - - 0.0
16/02:00am 25.1 25.0 16.9 60 5.1 NNE 13 15 7 8 - - 0.0
16/01:50am 25.4 25.7 16.9 59 5.3 NNE 11 15 6 8 - - 0.0
16/01:40am 25.6 25.5 16.9 58 5.5 NNE 13 19 7 10 - - 0.0
16/01:30am 25.7 26.0 16.9 58 5.5 NNE 11 13 6 7 - - 0.0
16/01:20am 25.9 25.8 16.9 57 5.6 NNE 13 17 7 9 - - 0.0
16/01:10am 26.2 26.5 16.9 56 5.8 NNE 11 13 6 7 - - 0.0
16/01:00am 26.5 26.3 16.7 55 6.1 NNE 13 17 7 9 - - 0.0
16/12:50am 26.6 26.8 16.8 55 6.2 NNE 11 13 6 7 - - 0.0
16/12:40am 26.8 27.4 16.7 54 6.3 NNE 9 13 5 7 - - 0.0
16/12:30am 27.1 27.7 16.8 53 6.5 NNE 9 13 5 7 - - 0.0
16/12:20am 27.3 27.9 16.7 52 6.7 NE 9 13 5 7 - - 0.0
16/12:10am 27.5 28.1 16.7 51 6.8 NE 9 11 5 6 - - 0.0
16/12:00am 27.7 28.3 16.7 51 6.9 NNE 9 11 5 6 - - 0.0
 
Date/Time
EST
Temp
°C
App
Temp
°C
Dew
Point
°C
Rel
Hum
%
Delta-T
°C
Wind Press
QNH
hPa
Press
MSL
hPa
Rain since
9am
mm
Dir  Spd
km/h
Gust
km/h
Spd
kts
Gust
kts
15/11:50pm 27.9 28.0 16.5 50 7.2 NNE 11 15 6 8 - - 0.0
15/11:40pm 28.1 27.9 16.6 49 7.2 NNE 13 17 7 9 - - 0.0
15/11:30pm 28.4 28.5 16.5 48 7.5 NNE 11 15 6 8 - - 0.0
15/11:20pm 28.8 29.2 16.4 47 7.8 NE 9 13 5 7 - - 0.0
15/11:10pm 29.0 29.4 16.3 46 8.0 NE 9 11 5 6 - - 0.0
15/11:00pm 29.3 29.3 16.3 45 8.2 NE 11 13 6 7 - - 0.0
15/10:50pm 29.7 29.6 16.0 43 8.6 NE 11 13 6 7 - - 0.0
15/10:40pm 30.0 29.8 15.8 42 8.9 NE 11 13 6 7 - - 0.0
15/10:30pm 30.3 30.5 15.8 41 9.1 NE 9 13 5 7 - - 0.0
15/10:20pm 30.7 30.5 15.6 40 9.4 NE 11 13 6 7 - - 0.0
15/10:10pm 31.1 31.5 15.2 38 9.9 NE 7 9 4 5 - - 0.0
15/10:00pm 31.5 31.9 14.8 36 10.4 NE 6 7 3 4 - - 0.0
15/09:50pm 31.7 31.3 14.2 34 10.8 NE 9 13 5 7 - - 0.0
15/09:40pm 31.8 31.3 13.8 33 11.0 NE 9 11 5 6 - - 0.0
15/09:30pm 31.8 30.9 13.7 33 11.1 ENE 11 15 6 8 - - 0.0
15/09:20pm 31.8 30.1 13.7 33 11.1 ENE 15 17 8 9 - - 0.0
15/09:10pm 31.8 29.9 14.2 34 10.8 E 17 19 9 10 - - 0.0
15/09:00pm 32.0 30.3 14.6 34 10.8 E 17 19 9 10 - - 0.0
15/08:50pm 32.0 30.9 14.3 34 10.9 E 13 17 7 9 - - 0.0
15/08:40pm 32.0 31.4 14.6 34 10.8 E 11 13 6 7 - - 0.0
15/08:30pm 32.4 31.8 14.5 33 11.1 E 11 15 6 8 - - 0.0
15/08:20pm 32.6 31.0 14.0 32 11.4 E 15 17 8 9 - - 0.0
15/08:10pm 32.0 30.7 13.7 33 11.2 E 13 17 7 9 - - 0.0
15/08:00pm 32.1 30.9 15.0 35 10.7 E 15 17 8 9 - - 0.0
15/07:50pm 32.3 31.2 15.4 36 10.6 E 15 19 8 10 - - 0.0
15/07:40pm 32.9 32.7 15.6 35 10.9 E 11 15 6 8 - - 0.0
15/07:30pm 33.5 33.8 14.5 31 11.8 ESE 6 11 3 6 - - 0.0
15/07:20pm 33.6 33.9 14.5 31 11.9 SE 6 7 3 4 - - 0.0
15/07:10pm 33.7 33.0 14.3 31 12.0 SE 11 15 6 8 - - 0.0
15/07:00pm 33.8 33.6 14.8 32 11.9 ESE 9 15 5 8 - - 0.0
15/06:50pm 34.3 34.2 15.0 31 12.1 ESE 9 9 5 5 - - 0.0
15/06:40pm 35.0 35.1 14.4 29 12.9 E 7 9 4 5 - - 0.0
15/06:30pm 35.4 35.5 13.8 27 13.4 ESE 6 7 3 4 - - 0.0
15/06:20pm 35.5 35.2 12.7 25 13.9 ESE 6 7 3 4 - - 0.0
15/06:10pm 35.5 35.1 13.0 25 13.8 ESE 7 7 4 4 - - 0.0
15/06:00pm 35.3 34.7 13.6 27 13.4 E 9 11 5 6 - - 0.0
15/05:50pm 35.7 34.8 13.6 26 13.7 E 11 15 6 8 - - 0.0
15/05:40pm 36.7 36.2 12.5 23 14.8 NE 7 11 4 6 - - 0.0
15/05:30pm 37.3 36.9 12.5 22 15.2 NNW 6 7 3 4 - - 0.0
15/05:20pm 37.7 37.7 12.5 22 15.5 NNW 4 7 2 4 - - 0.0
15/05:10pm 37.9 37.4 12.1 21 15.7 WNW 6 7 3 4 - - 0.0
15/05:00pm 37.3 37.2 12.2 22 15.3 WSW 4 7 2 4 - - 0.0
15/04:50pm 37.3 36.9 12.3 22 15.3 ESE 6 9 3 5 - - 0.0
15/04:40pm 37.1 36.6 12.1 22 15.2 WSW 6 9 3 5 - - 0.0
15/04:30pm 36.7 35.3 12.1 22 14.9 SW 11 13 6 7 - - 0.0
15/04:20pm 37.2 35.8 12.2 22 15.2 S 11 17 6 9 - - 0.0
15/04:10pm 37.0 36.5 11.9 22 15.2 SW 6 13 3 7 - - 0.0
15/04:00pm 36.3 35.6 12.0 23 14.7 SSW 7 11 4 6 - - 0.0
15/03:50pm 36.3 35.2 12.0 23 14.7 S 9 15 5 8 - - 0.0
15/03:40pm 36.2 34.3 11.7 22 14.8 SSW 13 17 7 9 - - 0.0
15/03:30pm 36.3 35.6 12.0 23 14.7 WSW 7 11 4 6 - - 0.0
15/03:20pm 36.0 34.3 12.3 24 14.4 WSW 13 19 7 10 - - 0.0
15/03:10pm 36.4 35.0 12.1 23 14.7 W 11 17 6 9 - - 0.0
15/03:00pm 36.1 35.1 12.3 24 14.5 W 9 15 5 8 - - 0.0
15/02:50pm 36.5 35.6 12.5 23 14.7 W 9 15 5 8 - - 0.0
15/02:40pm 37.0 35.7 12.4 23 15.0 WSW 11 17 6 9 - - 0.0
15/02:30pm 36.7 36.2 11.9 22 15.0 S 6 11 3 6 - - 0.0
15/02:20pm 36.2 34.6 11.7 22 14.8 SSW 11 19 6 10 - - 0.0
15/02:10pm 36.6 34.8 11.0 21 15.3 WSW 11 22 6 12 - - 0.0
15/02:00pm 36.7 34.9 12.1 22 14.9 SW 13 22 7 12 - - 0.0
15/01:50pm 36.5 35.9 12.2 23 14.8 NE 7 15 4 8 - - 0.0
15/01:40pm 36.3 35.2 12.0 23 14.7 SSE 9 17 5 9 - - 0.0
15/01:30pm 35.9 35.3 11.8 23 14.5 WSW 6 11 3 6 - - 0.0
15/01:20pm 35.4 33.4 11.5 23 14.3 SSW 13 20 7 11 - - 0.0
15/01:10pm 35.1 33.9 11.7 24 14.0 S 9 17 5 9 - - 0.0
15/01:00pm 35.2 33.3 11.7 24 14.1 SSW 13 17 7 9 - - 0.0
15/12:50pm 34.9 34.2 11.9 24 13.8 SSW 7 13 4 7 - - 0.0
15/12:40pm 34.7 34.7 12.3 25 13.5 E 4 7 2 4 - - 0.0
15/12:30pm 34.3 34.1 13.1 27 13.0 SW 6 13 3 7 - - 0.0
15/12:20pm 34.0 33.7 12.8 27 12.9 S 6 9 3 5 - - 0.0
15/12:10pm 34.5 33.6 12.7 26 13.2 SW 9 13 5 7 - - 0.0
15/12:00pm 34.2 34.4 13.1 28 12.9 NNE 4 9 2 5 - - 0.0
15/11:50am 33.8 33.8 13.7 29 12.4 N 6 9 3 5 - - 0.0
15/11:40am 33.8 33.9 13.9 30 12.3 N 6 9 3 5 - - 0.0
15/11:30am 33.5 33.9 13.6 30 12.2 SE 4 7 2 4 - - 0.0
15/11:20am 32.8 32.8 13.7 31 11.7 WSW 6 7 3 4 - - 0.0
15/11:10am 32.6 33.0 13.8 32 11.5 SSW 4 6 2 3 - - 0.0
15/11:00am 31.9 32.4 14.0 33 11.0 N 4 6 2 3 - - 0.0
15/10:50am 31.6 31.5 13.8 34 10.9 NW 7 11 4 6 - - 0.0
15/10:40am 31.5 31.6 14.4 35 10.5 NNE 7 13 4 7 - - 0.0
15/10:30am 31.0 31.3 14.6 37 10.1 NE 6 11 3 6 - - 0.0
15/10:20am 30.7 31.5 14.8 38 9.8 NE 4 9 2 5 - - 0.0
15/10:10am 30.4 30.7 15.0 39 9.5 W 7 9 4 5 - - 0.0
15/10:00am 30.0 30.2 14.2 38 9.7 NNE 6 13 3 7 - - 0.0
15/09:50am 29.8 30.4 15.4 41 9.0 NE 6 9 3 5 - - 0.0
15/09:40am 29.7 30.2 15.1 41 9.0 NNW 6 9 3 5 - - 0.0
15/09:30am 29.0 29.6 15.2 43 8.5 NNE 6 13 3 7 - - 0.0
15/09:20am 28.4 29.0 15.7 46 7.9 N 7 11 4 6 - - 0.0
15/09:10am 28.3 29.4 15.6 46 7.9 NW 4 13 2 7 - - 0.0
15/09:00am 27.6 27.7 15.6 48 7.4 NNE 9 15 5 8 - - 0.0
15/08:50am 27.4 28.0 15.8 49 7.2 NE 7 11 4 6 - - 0.0
15/08:40am 27.1 27.8 16.0 50 6.9 NNE 7 11 4 6 - - 0.0
15/08:30am 26.3 26.7 16.2 53 6.3 NE 9 11 5 6 - - 0.0
15/08:20am 26.4 26.8 16.2 53 6.3 NNE 9 11 5 6 - - 0.0
15/08:10am 25.7 26.1 16.4 56 5.8 NNE 9 11 5 6 - - 0.0
15/08:00am 25.8 26.3 16.5 56 5.8 NNE 9 15 5 8 - - 0.0
15/07:50am 25.5 26.2 16.2 56 5.8 NNE 7 15 4 8 - - 0.0
15/07:40am 25.0 25.5 16.5 59 5.3 NNE 9 13 5 7 - - 0.0
15/07:30am 24.5 24.2 16.4 60 5.0 NNE 13 15 7 8 - - 0.0
15/07:20am 24.4 24.2 16.6 61 4.8 NNE 13 17 7 9 - - 0.0
15/07:00am 24.0 23.7 16.5 63 4.6 NNE 13 17 7 9 - - 0.0
15/06:50am 23.6 23.8 16.8 65 4.2 NNE 11 17 6 9 - - 0.0
15/06:40am 23.3 23.5 16.8 67 4.0 NNE 11 13 6 7 - - 0.0
15/06:30am 23.0 23.6 16.7 67 3.9 NE 9 11 5 6 - - 0.0
15/06:20am 22.6 23.5 16.6 69 3.7 NE 7 9 4 5 - - 0.0
15/06:10am 22.1 23.2 16.6 71 3.4 NE 6 9 3 5 - - 0.0
15/06:00am 22.0 23.1 16.5 71 3.4 NE 6 7 3 4 - - 0.0
15/05:50am 21.7 23.1 16.5 72 3.2 NE 4 6 2 3 - - 0.0
15/05:40am 21.4 22.8 16.4 73 3.1 NE 4 4 2 2 - - 0.0
15/05:30am 21.3 22.7 16.4 73 3.0 NE 4 6 2 3 - - 0.0
15/05:20am 21.4 22.8 16.4 73 3.1 NE 4 6 2 3 - - 0.0
15/05:10am 21.5 22.5 16.3 72 3.2 NE 6 7 3 4 - - 0.0
15/05:00am 21.6 22.6 16.3 72 3.2 NE 6 7 3 4 - - 0.0
15/04:50am 21.6 22.4 16.4 72 3.2 NNE 7 9 4 5 - - 0.0
15/04:40am 21.6 22.4 16.3 72 3.2 NNE 7 9 4 5 - - 0.0
15/04:30am 21.7 22.1 16.2 71 3.4 NE 9 11 5 6 - - 0.0
15/04:20am 21.8 22.2 16.2 70 3.4 NE 9 13 5 7 - - 0.0
15/04:10am 21.9 22.6 16.1 69 3.5 NNE 7 9 4 5 - - 0.0
15/04:00am 22.0 22.9 16.1 69 3.6 NE 6 7 3 4 - - 0.0
15/03:50am 22.1 22.8 16.1 69 3.7 NNE 7 7 4 4 - - 0.0
15/03:40am 22.3 23.0 16.0 67 3.8 NE 7 11 4 6 - - 0.0
15/03:30am 22.4 23.1 16.0 67 3.9 NE 7 9 4 5 - - 0.0
15/03:20am 22.5 23.1 15.9 66 4.0 NE 7 11 4 6 - - 0.0
15/03:10am 22.7 23.0 15.9 65 4.2 NNE 9 11 5 6 - - 0.0
15/03:00am 22.8 22.7 15.9 65 4.2 NE 11 13 6 7 - - 0.0
15/02:50am 22.9 22.8 15.9 64 4.3 NE 11 17 6 9 - - 0.0
15/02:40am 22.9 22.7 15.8 64 4.3 NE 11 13 6 7 - - 0.0
15/02:30am 23.0 23.2 15.7 63 4.4 NE 9 11 5 6 - - 0.0
15/02:20am 23.1 23.2 15.6 62 4.6 NE 9 13 5 7 - - 0.0
15/02:10am 23.2 22.9 15.5 62 4.7 NE 11 17 6 9 - - 0.0
15/02:00am 23.3 23.0 15.5 61 4.7 NE 11 13 6 7 - - 0.0
15/01:50am 23.4 22.7 15.4 60 4.9 NE 13 17 7 9 - - 0.0
15/01:40am 23.5 22.4 15.3 60 5.0 NE 15 20 8 11 - - 0.0
15/01:30am 23.7 23.0 15.4 59 5.0 NE 13 15 7 8 - - 0.0
15/01:20am 23.9 24.2 16.1 61 4.8 NE 9 11 5 6 - - 0.0
15/01:10am 24.1 23.7 16.3 61 4.8 NE 13 15 7 8 - - 0.0
15/01:00am 24.3 24.3 16.3 61 4.9 NE 11 15 6 8 - - 0.0
15/12:50am 24.5 24.1 16.3 60 5.1 NE 13 17 7 9 - - 0.0
15/12:40am 24.7 24.3 16.2 59 5.3 NE 13 17 7 9 - - 0.0
15/12:30am 24.9 24.5 16.1 58 5.4 NE 13 17 7 9 - - 0.0
15/12:20am 25.0 24.6 16.1 57 5.5 NE 13 17 7 9 - - 0.0
15/12:10am 25.2 24.8 16.1 57 5.6 NE 13 15 7 8 - - 0.0
15/12:00am 25.4 24.9 15.9 55 5.9 NE 13 19 7 10 - - 0.0
 
Date/Time
EST
Temp
°C
App
Temp
°C
Dew
Point
°C
Rel
Hum
%
Delta-T
°C
Wind Press
QNH
hPa
Press
MSL
hPa
Rain since
9am
mm
Dir  Spd
km/h
Gust
km/h
Spd
kts
Gust
kts
14/11:50pm 25.6 24.7 15.8 54 6.0 NE 15 20 8 11 - - 0.0
14/11:40pm 25.8 24.8 15.6 53 6.3 NE 15 17 8 9 - - 0.0
14/11:30pm 26.0 24.9 15.4 52 6.5 NE 15 20 8 11 - - 0.0
14/11:20pm 26.3 25.8 15.0 49 6.9 NE 11 13 6 7 - - 0.0
14/11:10pm 26.4 25.9 14.8 49 7.1 NE 11 15 6 8 - - 0.0
14/11:00pm 26.6 25.3 14.7 48 7.2 NNE 15 19 8 10 - - 0.0
14/10:50pm 26.8 25.4 14.4 46 7.5 NE 15 17 8 9 - - 0.0
14/10:40pm 27.0 25.2 14.4 46 7.6 NE 17 20 9 11 - - 0.0
14/10:30pm 27.3 25.7 13.9 43 8.1 NE 15 19 8 10 - - 0.0
14/10:20pm 27.6 26.6 13.3 41 8.5 NE 11 17 6 9 - - 0.0
14/10:10pm 27.8 25.5 13.0 40 8.8 NNE 17 20 9 11 - - 0.0
14/10:00pm 28.1 26.9 12.8 38 9.1 NE 11 15 6 8 - - 0.0
14/09:50pm 28.4 26.7 12.6 37 9.4 NNE 13 19 7 10 - - 0.0
14/09:40pm 28.5 26.4 12.5 37 9.5 NNE 15 19 8 10 - - 0.0
14/09:30pm 28.7 27.0 12.6 37 9.5 NNE 13 17 7 9 - - 0.0
14/09:20pm 29.0 27.3 12.6 36 9.7 NNE 13 17 7 9 - - 0.0
14/09:10pm 29.3 27.2 12.5 35 10.0 NNE 15 17 8 9 - - 0.0
14/09:00pm 29.7 27.6 12.5 34 10.2 NNE 15 19 8 10 - - 0.0
14/08:50pm 30.2 28.0 12.0 32 10.8 NNE 15 19 8 10 - - 0.0
14/08:40pm 30.6 28.1 10.9 29 11.5 NNE 15 17 8 9 - - 0.0
14/08:30pm 30.9 28.8 9.7 27 12.1 NNE 11 15 6 8 - - 0.0
14/08:20pm 31.3 29.5 9.4 25 12.5 NE 9 11 5 6 - - 0.0
14/08:10pm 31.5 29.3 9.3 25 12.6 NE 11 13 6 7 - - 0.0
14/08:00pm 31.7 29.5 9.2 25 12.8 NNE 11 13 6 7 - - 0.0
14/07:50pm 32.0 29.8 9.2 24 13.0 NNE 11 15 6 8 - - 0.0
14/07:40pm 32.2 30.7 9.2 24 13.1 NE 7 15 4 8 - - 0.0
14/07:30pm 32.6 31.2 9.5 24 13.3 NE 7 7 4 4 - - 0.0
14/07:20pm 32.7 31.2 9.3 23 13.4 NE 7 11 4 6 - - 0.0
14/07:10pm 32.7 30.8 8.9 23 13.6 ENE 9 11 5 6 - - 0.0
14/07:00pm 33.3 30.5 8.5 21 14.1 ENE 13 15 7 8 - - 0.0
14/06:50pm 34.0 31.5 8.3 20 14.6 ENE 11 15 6 8 - - 0.0
14/06:40pm 34.5 31.9 7.8 19 15.1 ENE 11 13 6 7 - - 0.0
14/06:30pm 34.9 32.4 8.1 19 15.2 NE 11 19 6 10 - - 0.0
14/06:20pm 35.1 31.8 8.1 19 15.4 ENE 15 20 8 11 - - 0.0
14/06:10pm 35.4 32.0 7.5 18 15.7 ENE 15 17 8 9 - - 0.0
14/06:00pm 35.6 31.5 6.4 16 16.2 ENE 17 22 9 12 - - 0.0
14/05:50pm 35.8 33.0 6.9 17 16.2 ENE 11 13 6 7 - - 0.0
14/05:40pm 36.0 31.9 6.0 15 16.6 ENE 17 20 9 11 - - 0.0
14/05:30pm 35.9 32.1 6.0 15 16.5 ENE 15 19 8 10 - - 0.0
14/05:20pm 36.3 32.5 5.9 15 16.8 ENE 15 20 8 11 - - 0.0
14/05:10pm 36.5 33.3 5.1 14 17.2 NE 11 17 6 9 - - 0.0
14/05:00pm 36.4 32.9 5.5 15 17.0 ENE 13 19 7 10 - - 0.0
14/04:50pm 36.6 31.7 4.3 13 17.4 ENE 19 24 10 13 - - 0.0
14/04:40pm 36.8 32.8 5.0 14 17.4 ENE 15 20 8 11 - - 0.0
14/04:30pm 36.4 32.1 5.1 14 17.1 ENE 17 22 9 12 - - 0.0
14/04:20pm 36.7 32.4 5.4 14 17.2 ENE 17 22 9 12 - - 0.0
14/04:10pm 36.8 32.6 3.6 12 17.8 ENE 15 22 8 12 - - 0.0
14/04:00pm 36.5 32.1 4.6 14 17.3 E 17 22 9 12 - - 0.0
14/03:50pm 36.7 31.6 4.3 13 17.5 E 20 26 11 14 - - 0.0
14/03:40pm 36.6 32.6 4.8 14 17.3 ENE 15 20 8 11 - - 0.0
14/03:30pm 36.4 31.3 4.2 13 17.3 ENE 20 28 11 15 - - 0.0
14/03:20pm 36.2 31.2 3.8 13 17.3 ENE 19 24 10 13 - - 0.0
14/03:10pm 36.5 31.9 3.9 13 17.5 NE 17 24 9 13 - - 0.0
14/03:00pm 36.3 31.7 3.5 13 17.5 ENE 17 20 9 11 - - 0.0
14/02:50pm 36.4 31.9 4.1 13 17.4 ENE 17 26 9 14 - - 0.0
14/02:40pm 36.6 32.8 3.8 13 17.6 NE 13 20 7 11 - - 0.0
14/02:30pm 36.5 32.8 4.4 13 17.4 NE 13 20 7 11 - - 0.0
14/02:20pm 36.5 32.3 3.6 13 17.6 NE 15 22 8 12 - - 0.0
14/02:10pm 36.1 32.3 3.8 13 17.3 ENE 13 24 7 13 - - 0.0
14/02:00pm 35.6 32.0 4.9 15 16.7 ENE 13 19 7 10 - - 0.0
14/01:50pm 35.5 30.8 5.3 15 16.5 ENE 19 28 10 15 - - 0.0
14/01:40pm 35.5 31.0 4.3 14 16.8 E 17 26 9 14 - - 0.0
14/01:30pm 35.1 30.0 4.1 14 16.6 ENE 20 28 11 15 - - 0.0
14/01:20pm 34.9 30.9 5.0 15 16.2 ENE 15 22 8 12 - - 0.0
14/01:10pm 34.6 31.6 5.8 16 15.8 ENE 11 17 6 9 - - 0.0
14/01:00pm 34.4 32.1 7.4 19 15.1 NE 9 13 5 7 - - 0.0
14/12:50pm 33.8 31.8 8.7 21 14.3 NNE 9 13 5 7 - - 0.0
14/12:40pm 33.5 30.9 7.8 20 14.4 ENE 11 15 6 8 - - 0.0
14/12:30pm 33.1 31.0 8.3 21 14.0 ENE 9 15 5 8 - - 0.0
14/12:20pm 32.9 30.7 9.2 23 13.6 NE 11 17 6 9 - - 0.0
14/12:10pm 32.9 30.8 9.9 24 13.3 NNE 11 15 6 8 - - 0.0
14/12:00pm 32.4 31.1 10.0 25 13.0 NE 7 15 4 8 - - 0.0
14/11:50am 32.3 30.7 10.2 25 12.8 NNE 9 15 5 8 - - 0.0
14/11:40am 32.2 30.6 10.3 26 12.7 NNE 9 13 5 7 - - 0.0
14/11:30am 32.2 29.9 9.0 23 13.2 NNE 11 20 6 11 - - 0.0
14/11:20am 31.6 30.2 11.0 28 12.1 NNE 9 15 5 8 - - 0.0
14/11:10am 31.4 29.7 11.2 29 11.9 NE 11 19 6 10 - - 0.0
14/11:00am 30.5 29.5 10.9 29 11.4 ENE 7 13 4 7 - - 0.0
14/10:50am 30.1 28.8 11.3 31 11.0 N 9 17 5 9 - - 0.0
14/10:40am 29.8 28.6 11.5 32 10.7 NNE 9 15 5 8 - - 0.0
14/10:30am 29.9 28.2 11.1 31 10.9 NE 11 17 6 9 - - 0.0
14/10:20am 29.6 28.8 11.8 33 10.5 NE 7 15 4 8 - - 0.0
14/10:10am 29.0 28.3 12.1 35 10.0 NE 7 13 4 7 - - 0.0
14/10:00am 28.9 28.1 11.7 34 10.1 ENE 7 15 4 8 - - 0.0
14/09:50am 28.4 27.0 12.2 36 9.5 NNE 11 13 6 7 - - 0.0
14/09:40am 27.6 25.7 11.8 37 9.2 ENE 13 20 7 11 - - 0.0
14/09:30am 27.2 25.3 11.7 38 9.0 E 13 17 7 9 - - 0.0
14/09:20am 26.9 25.0 11.8 39 8.8 ENE 13 19 7 10 - - 0.0
14/09:10am 26.8 25.0 12.1 40 8.6 ENE 13 19 7 10 - - 0.0
14/09:00am 26.7 25.5 12.8 42 8.2 ENE 11 15 6 8 - - 0.0
14/08:50am 26.3 25.4 12.6 42 8.0 NE 9 13 5 7 - - 0.0
14/08:40am 25.5 24.2 12.5 44 7.6 ENE 11 17 6 9 - - 0.0
14/08:30am 25.0 23.4 12.8 46 7.1 ENE 13 17 7 9 - - 0.0
14/08:20am 25.0 23.8 12.7 46 7.2 NE 11 15 6 8 - - 0.0
14/08:10am 24.5 22.9 12.7 47 6.9 ENE 13 17 7 9 - - 0.0
14/08:00am 23.9 22.3 12.9 50 6.4 NE 13 17 7 9 - - 0.0
14/07:50am 23.6 21.4 13.3 52 6.0 ENE 17 22 9 12 - - 0.0
14/07:40am 23.7 21.9 13.2 51 6.2 ENE 15 20 8 11 - - 0.0
14/07:30am 23.3 21.1 13.2 53 5.9 ENE 17 20 9 11 - - 0.0
14/07:20am 23.2 21.8 13.4 54 5.8 NE 13 17 7 9 - - 0.0
14/07:10am 22.8 21.4 13.4 55 5.5 ENE 13 17 7 9 - - 0.0
14/07:00am 22.6 21.7 13.7 57 5.2 NE 11 15 6 8 - - 0.0
14/06:50am 22.5 22.0 13.8 58 5.1 NE 9 11 5 6 - - 0.0
14/06:40am 22.1 21.6 13.7 59 4.9 NE 9 11 5 6 - - 0.0
14/06:30am 21.6 21.7 13.9 61 4.5 ENE 6 7 3 4 - - 0.0
14/06:20am 21.3 21.7 13.8 62 4.4 ENE 4 6 2 3 - - 0.0
14/06:10am 20.9 21.7 13.7 63 4.2 NE 2 2 1 1 - - 0.0
14/06:00am 19.6 20.7 13.5 68 3.5 CALM 0 2 0 1 - - 0.0
14/05:50am 18.6 19.6 13.3 71 3.0 CALM 0 0 0 0 - - 0.0
14/05:40am 18.1 19.2 13.4 74 2.7 CALM 0 2 0 1 - - 0.0
14/05:30am 17.7 18.7 13.1 74 2.6 CALM 0 0 0 0 - - 0.0
14/05:20am 17.6 18.6 13.3 76 2.5 CALM 0 0 0 0 - - 0.0
14/05:10am 17.9 18.3 12.6 71 3.0 NE 2 2 1 1 - - 0.0
14/05:00am 18.1 18.2 12.8 71 3.0 NE 4 4 2 2 - - 0.0
14/04:50am 17.9 18.1 13.0 73 2.8 NNE 4 4 2 2 - - 0.0
14/04:40am 17.8 18.3 12.9 73 2.8 NE 2 4 1 2 - - 0.0
14/04:30am 18.0 18.6 13.0 72 2.8 NE 2 4 1 2 - - 0.0
14/04:20am 18.4 18.6 13.1 71 3.0 ENE 4 6 2 3 - - 0.0
14/04:10am 18.7 18.9 13.1 70 3.2 NE 4 4 2 2 - - 0.0
14/04:00am 18.8 19.4 13.1 69 3.3 NE 2 4 1 2 - - 0.0
14/03:50am 19.1 20.1 13.1 68 3.4 CALM 0 2 0 1 - - 0.0
14/03:40am 19.3 19.9 13.2 68 3.5 ENE 2 2 1 1 - - 0.0
14/03:30am 19.3 19.9 13.1 67 3.6 ENE 2 4 1 2 - - 0.0
14/03:20am 19.3 19.9 13.1 67 3.6 NE 2 4 1 2 - - 0.0
14/03:10am 19.4 20.4 13.2 67 3.6 CALM 0 2 0 1 - - 0.0
14/03:00am 19.5 20.1 13.1 66 3.7 NE 2 4 1 2 - - 0.0
14/02:50am 19.6 19.8 12.9 65 3.8 ENE 4 6 2 3 - - 0.0
14/02:40am 19.5 19.1 12.9 65 3.8 ENE 7 9 4 5 - - 0.0
14/02:30am 19.5 18.7 13.0 66 3.7 E 9 11 5 6 - - 0.0
14/02:20am 20.0 18.9 13.0 64 4.0 ENE 11 11 6 6 - - 0.0
14/02:10am 20.4 19.3 13.1 63 4.2 ENE 11 13 6 7 - - 0.0
14/02:00am 20.8 19.7 13.0 61 4.5 ENE 11 11 6 6 - - 0.0
14/01:50am 21.2 20.1 13.0 59 4.7 ENE 11 13 6 7 - - 0.0
14/01:40am 21.5 19.6 13.1 58 4.9 E 15 15 8 8 - - 0.0
14/01:30am 21.8 19.5 13.0 57 5.1 E 17 19 9 10 - - 0.0
14/01:20am 21.8 19.5 12.9 57 5.1 ENE 17 19 9 10 - - 0.0
14/01:10am 21.9 19.9 12.7 56 5.3 ENE 15 15 8 8 - - 0.0
14/01:00am 21.9 19.7 13.2 57 5.1 E 17 19 9 10 - - 0.0
14/12:50am 22.4 19.7 13.0 55 5.5 E 19 20 10 11 - - 0.0
14/12:40am 22.6 20.3 13.0 54 5.6 E 17 19 9 10 - - 0.0
14/12:30am 22.9 20.9 12.7 52 5.9 ENE 15 22 8 12 - - 0.0
14/12:20am 23.2 20.7 12.2 50 6.3 ENE 17 20 9 11 - - 0.0
14/12:10am 23.3 20.4 12.4 50 6.3 E 19 22 10 12 - - 0.0
14/12:00am 23.8 20.2 11.9 47 6.8 ENE 22 24 12 13 - - 0.0
 
Date/Time
EST
Temp
°C
App
Temp
°C
Dew
Point
°C
Rel
Hum
%
Delta-T
°C
Wind Press
QNH
hPa
Press
MSL
hPa
Rain since
9am
mm
Dir  Spd
km/h
Gust
km/h
Spd
kts
Gust
kts
13/11:50pm 24.2 20.7 10.9 43 7.5 ENE 20 26 11 14 - - 0.0
13/11:40pm 24.5 20.5 10.6 41 7.8 ENE 22 24 12 13 - - 0.0
13/11:30pm 24.7 20.6 10.2 40 8.1 ENE 22 24 12 13 - - 0.0
13/11:20pm 25.0 20.5 10.0 38 8.4 ENE 24 28 13 15 - - 0.0
13/11:10pm 25.2 21.2 10.3 39 8.4 ENE 22 28 12 15 - - 0.0
13/11:00pm 25.2 22.6 11.9 43 7.7 ENE 17 20 9 11 - - 0.0
13/10:50pm 25.5 22.2 11.6 41 8.0 ENE 20 22 11 12 - - 0.0
13/10:40pm 25.6 22.6 11.9 42 7.9 ENE 19 22 10 12 - - 0.0
13/10:30pm 25.7 23.2 13.4 46 7.3 ENE 19 22 10 12 - - 0.0
13/10:20pm 25.8 23.8 14.0 48 7.1 ENE 17 20 9 11 - - 0.0
13/10:10pm 26.2 22.9 14.0 47 7.3 ENE 24 28 13 15 - - 0.0
13/10:00pm 26.5 22.8 14.0 46 7.5 ENE 26 30 14 16 - - 0.0
13/09:50pm 26.8 23.1 14.0 45 7.7 ENE 26 28 14 15 - - 0.0
13/09:40pm 27.2 23.6 14.2 44 7.9 E 26 30 14 16 - - 0.0
13/09:30pm 27.6 24.4 14.3 44 8.1 E 24 28 13 15 - - 0.0
13/09:20pm 28.2 24.2 14.2 42 8.5 ENE 28 32 15 17 - - 0.0
13/09:10pm 28.6 24.5 13.9 40 8.9 ENE 28 33 15 18 - - 0.0
13/09:00pm 29.0 25.4 13.2 37 9.5 ENE 24 32 13 17 - - 0.0
13/08:50pm 29.3 26.1 11.2 32 10.5 ENE 19 22 10 12 - - 0.0
13/08:40pm 29.6 26.8 10.1 29 11.2 ENE 15 19 8 10 - - 0.0
13/08:30pm 30.1 26.8 9.7 28 11.6 ENE 17 19 9 10 - - 0.0
13/08:20pm 30.4 27.8 9.3 27 12.0 ENE 13 19 7 10 - - 0.0
13/08:10pm 30.7 27.3 9.3 26 12.1 ENE 17 20 9 11 - - 0.0
13/08:00pm 30.9 27.2 9.4 26 12.2 ENE 19 22 10 12 - - 0.0
13/07:50pm 31.0 27.3 9.3 26 12.3 ENE 19 20 10 11 - - 0.0
13/07:40pm 31.3 27.3 9.2 25 12.6 ENE 20 24 11 13 - - 0.0
13/07:30pm 31.5 27.5 9.1 25 12.7 ENE 20 22 11 12 - - 0.0
13/07:20pm 31.8 27.8 9.0 24 12.9 ENE 20 22 11 12 - - 0.0
13/07:10pm 32.1 28.1 8.9 23 13.2 ENE 20 22 11 12 - - 0.0
13/07:00pm 32.3 27.7 8.2 22 13.5 ENE 22 26 12 14 - - 0.0
13/06:50pm 32.8 28.2 8.3 22 13.8 ENE 22 28 12 15 - - 0.0
13/06:40pm 33.2 28.3 8.3 21 14.1 E 24 28 13 15 - - 0.0
13/06:30pm 33.6 28.6 8.0 20 14.4 E 24 28 13 15 - - 0.0
13/06:20pm 34.0 29.3 7.7 19 14.8 E 22 28 12 15 - - 0.0
13/06:10pm 34.4 29.5 7.1 18 15.2 E 22 30 12 16 - - 0.0
13/06:00pm 34.7 29.5 7.1 18 15.4 E 24 32 13 17 - - 0.0
13/05:50pm 35.0 29.3 6.6 17 15.8 E 26 28 14 15 - - 0.0
13/05:40pm 35.5 30.0 5.7 16 16.4 E 24 30 13 16 - - 0.0
13/05:30pm 35.8 30.6 5.6 15 16.6 ENE 22 28 12 15 - - 0.0
13/05:20pm 35.9 30.0 5.7 15 16.6 ENE 26 32 14 17 - - 0.0
13/05:10pm 36.0 30.0 5.2 15 16.8 E 26 37 14 20 - - 0.0
13/05:00pm 36.0 30.7 5.2 15 16.8 ENE 22 30 12 16 - - 0.0
13/04:50pm 36.0 30.8 5.4 15 16.8 ENE 22 30 12 16 - - 0.0
13/04:40pm 36.3 30.8 5.8 15 16.8 ENE 24 28 13 15 - - 0.0
13/04:30pm 36.2 31.2 6.5 16 16.6 ENE 22 30 12 16 - - 0.0
13/04:20pm 36.5 31.7 5.6 15 17.0 ENE 20 30 11 16 - - 0.0
13/04:10pm 36.2 31.3 5.1 14 17.0 ENE 20 26 11 14 - - 0.0
13/04:00pm 36.6 30.8 4.2 13 17.5 ENE 24 28 13 15 - - 0.0
13/03:50pm 36.6 31.5 5.9 15 17.0 E 22 35 12 19 - - 0.0
13/03:40pm 36.5 32.1 5.0 14 17.2 E 17 24 9 13 - - 0.0
13/03:30pm 36.3 31.6 5.0 14 17.1 E 19 26 10 14 - - 0.0
13/03:20pm 36.4 33.1 4.6 14 17.2 ENE 11 20 6 11 - - 0.0
13/03:10pm 36.2 32.1 4.4 14 17.2 E 15 26 8 14 - - 0.0
13/03:00pm 36.6 31.6 3.7 13 17.6 E 19 24 10 13 - - 0.0
13/02:50pm 36.4 31.9 4.1 13 17.4 ENE 17 22 9 12 - - 0.0
13/02:40pm 36.5 32.9 3.2 12 17.7 E 11 19 6 10 - - 0.0
13/02:30pm 36.0 32.1 3.5 13 17.3 E 13 15 7 8 - - 0.0
13/02:20pm 36.0 31.0 3.7 13 17.2 ENE 19 26 10 14 - - 0.0
13/02:00pm 35.3 30.9 2.6 13 17.1 ENE 15 24 8 13 - - 0.0
13/01:50pm 35.5 30.4 3.1 13 17.1 E 19 30 10 16 - - 0.0
13/01:40pm 35.3 30.2 2.8 13 17.0 E 19 26 10 14 - - 0.0
13/01:30pm 35.1 29.5 3.5 14 16.7 ESE 22 30 12 16 - - 0.0
13/01:20pm 35.1 30.8 3.3 13 16.8 E 15 22 8 12 - - 0.0
13/01:10pm 35.2 31.5 4.2 14 16.6 NE 13 19 7 10 - - 0.0
13/01:00pm 35.2 30.8 5.0 15 16.4 ENE 17 22 9 12 - - 0.0
13/12:50pm 35.1 31.5 5.1 15 16.3 E 13 17 7 9 - - 0.0
13/12:40pm 34.3 30.7 6.9 18 15.2 ENE 15 22 8 12 - - 0.0
13/12:30pm 34.0 30.6 5.9 17 15.4 ENE 13 20 7 11 - - 0.0
13/12:20pm 33.6 29.2 6.7 19 14.9 ENE 19 20 10 11 - - 0.0
13/12:10pm 33.7 30.0 6.2 18 15.1 E 15 22 8 12 - - 0.0
13/12:00pm 33.1 30.4 7.2 20 14.4 E 11 13 6 7 - - 0.0
13/11:50am 33.2 29.3 6.9 19 14.5 ENE 17 24 9 13 - - 0.0
13/11:40am 32.6 29.9 7.5 21 14.0 E 11 19 6 10 - - 0.0
13/11:30am 32.1 28.7 7.5 21 13.7 E 15 22 8 12 - - 0.0
13/11:20am 31.9 28.8 7.1 21 13.7 ENE 13 17 7 9 - - 0.0
13/11:10am 31.9 28.6 7.9 22 13.4 ENE 15 19 8 10 - - 0.0
13/11:00am 31.6 27.8 7.4 22 13.4 E 17 20 9 11 - - 0.0
13/10:50am 31.9 29.4 8.3 23 13.3 NE 11 17 6 9 - - 0.0
13/10:40am 31.3 29.4 9.2 25 12.6 NE 9 15 5 8 - - 0.0
13/10:30am 30.6 28.7 9.1 26 12.2 NE 9 15 5 8 - - 0.0
13/10:20am 30.1 27.4 9.1 27 11.8 ENE 13 20 7 11 - - 0.0
13/10:10am 29.9 28.4 10.6 30 11.1 NE 9 13 5 7 - - 0.0
13/10:00am 29.2 27.9 11.1 32 10.5 ENE 9 17 5 9 - - 0.0
13/09:50am 29.0 27.3 11.2 33 10.3 NE 11 15 6 8 - - 0.0
13/09:40am 28.4 26.9 10.7 33 10.2 E 9 15 5 8 - - 0.0
13/09:30am 28.2 26.7 11.8 36 9.6 ENE 11 13 6 7 - - 0.0

Other Formats:

Comma delimited format used in spreadsheet applications
http://www.bom.gov.au/fwo/IDQ60801/IDQ60801.99122.axf

JavaScript Object Notation format (JSON) in row-major order
http://www.bom.gov.au/fwo/IDQ60801/IDQ60801.99122.json